sensor_id;sensor_type;location;lat;lon;timestamp;temperature;humidity
26707;DHT22;14319;49.422;10.934;2022-07-19T00:00:36;19.00;47.70
26707;DHT22;14319;49.422;10.934;2022-07-19T00:02:38;19.10;47.90
26707;DHT22;14319;49.422;10.934;2022-07-19T00:04:38;19.20;47.10
26707;DHT22;14319;49.422;10.934;2022-07-19T00:06:39;19.20;46.50
26707;DHT22;14319;49.422;10.934;2022-07-19T00:08:39;19.30;47.20
26707;DHT22;14319;49.422;10.934;2022-07-19T00:10:40;19.20;46.40
26707;DHT22;14319;49.422;10.934;2022-07-19T00:12:41;19.20;46.60
26707;DHT22;14319;49.422;10.934;2022-07-19T00:14:42;19.10;47.30
26707;DHT22;14319;49.422;10.934;2022-07-19T00:16:42;18.90;47.60
26707;DHT22;14319;49.422;10.934;2022-07-19T00:18:43;18.80;47.80
26707;DHT22;14319;49.422;10.934;2022-07-19T00:20:44;18.90;48.00
26707;DHT22;14319;49.422;10.934;2022-07-19T00:22:45;18.90;47.80
26707;DHT22;14319;49.422;10.934;2022-07-19T00:24:45;19.00;47.30
26707;DHT22;14319;49.422;10.934;2022-07-19T00:26:46;19.00;47.60
26707;DHT22;14319;49.422;10.934;2022-07-19T00:28:47;18.70;48.80
26707;DHT22;14319;49.422;10.934;2022-07-19T00:30:47;18.40;48.90
26707;DHT22;14319;49.422;10.934;2022-07-19T00:32:48;18.40;49.10
26707;DHT22;14319;49.422;10.934;2022-07-19T00:34:49;18.50;49.00
26707;DHT22;14319;49.422;10.934;2022-07-19T00:36:49;18.40;48.80
26707;DHT22;14319;49.422;10.934;2022-07-19T00:38:50;18.30;48.10
26707;DHT22;14319;49.422;10.934;2022-07-19T00:40:51;18.50;48.50
26707;DHT22;14319;49.422;10.934;2022-07-19T00:42:52;18.50;48.60
26707;DHT22;14319;49.422;10.934;2022-07-19T00:44:53;18.50;48.90
26707;DHT22;14319;49.422;10.934;2022-07-19T00:46:54;18.50;49.30
26707;DHT22;14319;49.422;10.934;2022-07-19T00:48:55;18.30;49.30
26707;DHT22;14319;49.422;10.934;2022-07-19T00:50:56;18.30;49.20
26707;DHT22;14319;49.422;10.934;2022-07-19T00:52:59;18.40;49.60
26707;DHT22;14319;49.422;10.934;2022-07-19T00:55:06;18.40;49.30
26707;DHT22;14319;49.422;10.934;2022-07-19T00:57:09;18.40;49.10
26707;DHT22;14319;49.422;10.934;2022-07-19T00:59:11;18.40;49.30
26707;DHT22;14319;49.422;10.934;2022-07-19T01:01:13;18.30;49.10
26707;DHT22;14319;49.422;10.934;2022-07-19T01:03:13;18.20;49.60
26707;DHT22;14319;49.422;10.934;2022-07-19T01:05:14;18.00;50.60
26707;DHT22;14319;49.422;10.934;2022-07-19T01:07:15;18.00;50.50
26707;DHT22;14319;49.422;10.934;2022-07-19T01:09:16;18.10;50.10
26707;DHT22;14319;49.422;10.934;2022-07-19T01:11:17;18.10;49.80
26707;DHT22;14319;49.422;10.934;2022-07-19T01:13:17;18.00;50.00
26707;DHT22;14319;49.422;10.934;2022-07-19T01:15:20;17.90;50.50
26707;DHT22;14319;49.422;10.934;2022-07-19T01:17:21;17.90;51.00
26707;DHT22;14319;49.422;10.934;2022-07-19T01:19:22;17.80;51.00
26707;DHT22;14319;49.422;10.934;2022-07-19T01:21:26;17.90;51.10
26707;DHT22;14319;49.422;10.934;2022-07-19T01:23:27;18.00;50.90
26707;DHT22;14319;49.422;10.934;2022-07-19T01:25:30;18.00;51.30
26707;DHT22;14319;49.422;10.934;2022-07-19T01:27:31;18.00;51.10
26707;DHT22;14319;49.422;10.934;2022-07-19T01:29:32;18.00;50.80
26707;DHT22;14319;49.422;10.934;2022-07-19T01:31:38;18.00;50.30
26707;DHT22;14319;49.422;10.934;2022-07-19T01:33:44;18.00;50.40
26707;DHT22;14319;49.422;10.934;2022-07-19T01:35:45;18.00;50.60
26707;DHT22;14319;49.422;10.934;2022-07-19T01:37:46;17.90;51.10
26707;DHT22;14319;49.422;10.934;2022-07-19T01:39:47;17.80;51.20
26707;DHT22;14319;49.422;10.934;2022-07-19T01:41:48;17.80;51.30
26707;DHT22;14319;49.422;10.934;2022-07-19T01:43:49;17.90;51.40
26707;DHT22;14319;49.422;10.934;2022-07-19T01:45:50;17.90;51.10
26707;DHT22;14319;49.422;10.934;2022-07-19T01:47:51;17.80;51.00
26707;DHT22;14319;49.422;10.934;2022-07-19T01:49:51;17.80;51.30
26707;DHT22;14319;49.422;10.934;2022-07-19T01:51:52;17.80;51.60
26707;DHT22;14319;49.422;10.934;2022-07-19T01:53:53;17.80;51.50
26707;DHT22;14319;49.422;10.934;2022-07-19T01:55:54;17.90;51.40
26707;DHT22;14319;49.422;10.934;2022-07-19T01:57:54;17.90;51.20
26707;DHT22;14319;49.422;10.934;2022-07-19T01:59:56;17.80;51.50
26707;DHT22;14319;49.422;10.934;2022-07-19T02:01:57;17.80;51.70
26707;DHT22;14319;49.422;10.934;2022-07-19T02:03:58;17.80;51.90
26707;DHT22;14319;49.422;10.934;2022-07-19T02:05:58;17.80;52.10
26707;DHT22;14319;49.422;10.934;2022-07-19T02:08:00;17.70;52.30
26707;DHT22;14319;49.422;10.934;2022-07-19T02:10:03;17.70;52.50
26707;DHT22;14319;49.422;10.934;2022-07-19T02:12:05;17.70;52.40
26707;DHT22;14319;49.422;10.934;2022-07-19T02:14:08;17.60;52.80
26707;DHT22;14319;49.422;10.934;2022-07-19T02:16:09;17.40;53.50
26707;DHT22;14319;49.422;10.934;2022-07-19T02:18:09;17.20;54.00
26707;DHT22;14319;49.422;10.934;2022-07-19T02:20:11;17.30;54.00
26707;DHT22;14319;49.422;10.934;2022-07-19T02:22:13;17.40;53.70
26707;DHT22;14319;49.422;10.934;2022-07-19T02:24:14;17.10;54.20
26707;DHT22;14319;49.422;10.934;2022-07-19T02:26:15;17.10;54.50
26707;DHT22;14319;49.422;10.934;2022-07-19T02:28:15;17.00;54.90
26707;DHT22;14319;49.422;10.934;2022-07-19T02:30:16;17.00;54.70
26707;DHT22;14319;49.422;10.934;2022-07-19T02:32:17;17.00;54.90
26707;DHT22;14319;49.422;10.934;2022-07-19T02:34:18;16.90;55.40
26707;DHT22;14319;49.422;10.934;2022-07-19T02:36:19;16.90;55.30
26707;DHT22;14319;49.422;10.934;2022-07-19T02:38:19;16.90;54.90
26707;DHT22;14319;49.422;10.934;2022-07-19T02:40:20;17.00;55.10
26707;DHT22;14319;49.422;10.934;2022-07-19T02:42:21;16.80;54.60
26707;DHT22;14319;49.422;10.934;2022-07-19T02:44:22;16.80;54.00
26707;DHT22;14319;49.422;10.934;2022-07-19T02:46:23;16.90;54.00
26707;DHT22;14319;49.422;10.934;2022-07-19T02:48:24;16.90;54.00
26707;DHT22;14319;49.422;10.934;2022-07-19T02:50:25;16.70;54.50
26707;DHT22;14319;49.422;10.934;2022-07-19T02:52:28;16.60;54.90
26707;DHT22;14319;49.422;10.934;2022-07-19T02:54:30;16.70;55.00
26707;DHT22;14319;49.422;10.934;2022-07-19T02:56:30;16.70;55.20
26707;DHT22;14319;49.422;10.934;2022-07-19T02:58:31;16.80;55.20
26707;DHT22;14319;49.422;10.934;2022-07-19T03:00:32;16.80;55.00
26707;DHT22;14319;49.422;10.934;2022-07-19T03:02:33;16.80;54.80
26707;DHT22;14319;49.422;10.934;2022-07-19T03:04:33;16.90;54.80
26707;DHT22;14319;49.422;10.934;2022-07-19T03:06:34;16.80;54.90
26707;DHT22;14319;49.422;10.934;2022-07-19T03:08:35;16.80;55.00
26707;DHT22;14319;49.422;10.934;2022-07-19T03:10:36;16.80;54.90
26707;DHT22;14319;49.422;10.934;2022-07-19T03:12:36;16.80;54.60
26707;DHT22;14319;49.422;10.934;2022-07-19T03:14:37;16.80;54.50
26707;DHT22;14319;49.422;10.934;2022-07-19T03:16:38;16.80;54.60
26707;DHT22;14319;49.422;10.934;2022-07-19T03:18:38;16.90;54.40
26707;DHT22;14319;49.422;10.934;2022-07-19T03:20:39;16.60;54.40
26707;DHT22;14319;49.422;10.934;2022-07-19T03:22:40;16.50;54.60
26707;DHT22;14319;49.422;10.934;2022-07-19T03:24:40;16.30;55.30
26707;DHT22;14319;49.422;10.934;2022-07-19T03:26:41;16.40;55.50
26707;DHT22;14319;49.422;10.934;2022-07-19T03:28:43;16.30;55.90
26707;DHT22;14319;49.422;10.934;2022-07-19T03:30:44;16.40;56.00
26707;DHT22;14319;49.422;10.934;2022-07-19T03:32:45;16.40;55.80
26707;DHT22;14319;49.422;10.934;2022-07-19T03:34:46;16.50;55.20
26707;DHT22;14319;49.422;10.934;2022-07-19T03:36:47;16.60;54.70
26707;DHT22;14319;49.422;10.934;2022-07-19T03:38:47;16.60;54.70
26707;DHT22;14319;49.422;10.934;2022-07-19T03:40:48;16.50;55.00
26707;DHT22;14319;49.422;10.934;2022-07-19T03:42:49;16.50;55.10
26707;DHT22;14319;49.422;10.934;2022-07-19T03:44:50;16.50;55.10
26707;DHT22;14319;49.422;10.934;2022-07-19T03:46:51;16.40;54.50
26707;DHT22;14319;49.422;10.934;2022-07-19T03:48:51;16.30;55.20
26707;DHT22;14319;49.422;10.934;2022-07-19T03:50:52;16.30;55.20
26707;DHT22;14319;49.422;10.934;2022-07-19T03:52:53;16.30;55.50
26707;DHT22;14319;49.422;10.934;2022-07-19T03:54:53;16.20;55.90
26707;DHT22;14319;49.422;10.934;2022-07-19T03:56:54;16.20;56.10
26707;DHT22;14319;49.422;10.934;2022-07-19T03:58:55;16.20;56.60
26707;DHT22;14319;49.422;10.934;2022-07-19T04:00:56;16.10;56.90
26707;DHT22;14319;49.422;10.934;2022-07-19T04:02:57;16.20;56.60
26707;DHT22;14319;49.422;10.934;2022-07-19T04:04:58;16.40;56.30
26707;DHT22;14319;49.422;10.934;2022-07-19T04:06:59;16.40;55.80
26707;DHT22;14319;49.422;10.934;2022-07-19T04:08:59;16.30;56.40
26707;DHT22;14319;49.422;10.934;2022-07-19T04:11:01;16.20;56.80
26707;DHT22;14319;49.422;10.934;2022-07-19T04:13:02;16.20;57.00
26707;DHT22;14319;49.422;10.934;2022-07-19T04:15:03;16.40;56.00
26707;DHT22;14319;49.422;10.934;2022-07-19T04:17:04;16.50;56.00
26707;DHT22;14319;49.422;10.934;2022-07-19T04:19:04;16.50;55.70
26707;DHT22;14319;49.422;10.934;2022-07-19T04:21:05;16.50;56.20
26707;DHT22;14319;49.422;10.934;2022-07-19T04:23:06;16.50;56.30
26707;DHT22;14319;49.422;10.934;2022-07-19T04:25:07;16.30;56.90
26707;DHT22;14319;49.422;10.934;2022-07-19T04:27:08;16.30;57.50
26707;DHT22;14319;49.422;10.934;2022-07-19T04:29:09;16.30;57.40
26707;DHT22;14319;49.422;10.934;2022-07-19T04:31:10;16.30;57.50
26707;DHT22;14319;49.422;10.934;2022-07-19T04:33:14;16.40;57.60
26707;DHT22;14319;49.422;10.934;2022-07-19T04:35:15;16.40;57.90
26707;DHT22;14319;49.422;10.934;2022-07-19T04:37:17;16.30;58.70
26707;DHT22;14319;49.422;10.934;2022-07-19T04:39:17;16.30;58.80
26707;DHT22;14319;49.422;10.934;2022-07-19T04:41:18;16.40;59.00
26707;DHT22;14319;49.422;10.934;2022-07-19T04:43:19;16.50;59.10
26707;DHT22;14319;49.422;10.934;2022-07-19T04:45:19;16.40;59.20
26707;DHT22;14319;49.422;10.934;2022-07-19T04:47:21;16.40;59.30
26707;DHT22;14319;49.422;10.934;2022-07-19T04:49:21;16.10;59.90
26707;DHT22;14319;49.422;10.934;2022-07-19T04:51:25;16.10;59.70
26707;DHT22;14319;49.422;10.934;2022-07-19T04:53:29;16.20;59.60
26707;DHT22;14319;49.422;10.934;2022-07-19T04:55:31;16.30;59.30
26707;DHT22;14319;49.422;10.934;2022-07-19T04:57:32;16.30;59.50
26707;DHT22;14319;49.422;10.934;2022-07-19T04:59:33;16.20;59.30
26707;DHT22;14319;49.422;10.934;2022-07-19T05:01:33;16.10;60.40
26707;DHT22;14319;49.422;10.934;2022-07-19T05:03:35;16.30;59.70
26707;DHT22;14319;49.422;10.934;2022-07-19T05:05:35;16.20;59.90
26707;DHT22;14319;49.422;10.934;2022-07-19T05:07:36;16.20;59.60
26707;DHT22;14319;49.422;10.934;2022-07-19T05:09:37;16.20;61.00
26707;DHT22;14319;49.422;10.934;2022-07-19T05:11:38;16.20;59.80
26707;DHT22;14319;49.422;10.934;2022-07-19T05:13:38;16.30;59.60
26707;DHT22;14319;49.422;10.934;2022-07-19T05:15:39;16.30;59.60
26707;DHT22;14319;49.422;10.934;2022-07-19T05:17:40;16.40;59.30
26707;DHT22;14319;49.422;10.934;2022-07-19T05:19:41;16.50;59.20
26707;DHT22;14319;49.422;10.934;2022-07-19T05:21:42;16.50;59.30
26707;DHT22;14319;49.422;10.934;2022-07-19T05:23:44;16.50;58.70
26707;DHT22;14319;49.422;10.934;2022-07-19T05:25:45;16.60;58.50
26707;DHT22;14319;49.422;10.934;2022-07-19T05:27:46;16.70;58.60
26707;DHT22;14319;49.422;10.934;2022-07-19T05:29:46;16.70;59.20
26707;DHT22;14319;49.422;10.934;2022-07-19T05:31:47;16.70;58.90
26707;DHT22;14319;49.422;10.934;2022-07-19T05:33:48;16.80;59.10
26707;DHT22;14319;49.422;10.934;2022-07-19T05:35:49;16.80;59.00
26707;DHT22;14319;49.422;10.934;2022-07-19T05:37:49;16.90;58.70
26707;DHT22;14319;49.422;10.934;2022-07-19T05:39:50;17.00;59.00
26707;DHT22;14319;49.422;10.934;2022-07-19T05:41:51;17.10;58.60
26707;DHT22;14319;49.422;10.934;2022-07-19T05:43:52;17.20;58.70
26707;DHT22;14319;49.422;10.934;2022-07-19T05:45:53;17.30;57.90
26707;DHT22;14319;49.422;10.934;2022-07-19T05:47:54;17.40;57.60
26707;DHT22;14319;49.422;10.934;2022-07-19T05:49:55;17.50;57.50
26707;DHT22;14319;49.422;10.934;2022-07-19T05:51:56;17.60;56.90
26707;DHT22;14319;49.422;10.934;2022-07-19T05:53:57;17.70;56.80
26707;DHT22;14319;49.422;10.934;2022-07-19T05:56:01;17.80;56.10
26707;DHT22;14319;49.422;10.934;2022-07-19T05:58:01;17.90;56.30
26707;DHT22;14319;49.422;10.934;2022-07-19T06:00:03;17.90;56.40
26707;DHT22;14319;49.422;10.934;2022-07-19T06:02:12;18.00;56.40
26707;DHT22;14319;49.422;10.934;2022-07-19T06:04:12;18.00;56.00
26707;DHT22;14319;49.422;10.934;2022-07-19T06:06:13;18.10;55.70
26707;DHT22;14319;49.422;10.934;2022-07-19T06:08:15;18.20;55.50
26707;DHT22;14319;49.422;10.934;2022-07-19T06:10:16;18.20;55.30
26707;DHT22;14319;49.422;10.934;2022-07-19T06:12:17;18.30;54.70
26707;DHT22;14319;49.422;10.934;2022-07-19T06:14:17;18.30;54.90
26707;DHT22;14319;49.422;10.934;2022-07-19T06:16:19;18.40;54.50
26707;DHT22;14319;49.422;10.934;2022-07-19T06:18:19;18.50;54.60
26707;DHT22;14319;49.422;10.934;2022-07-19T06:20:20;18.50;54.60
26707;DHT22;14319;49.422;10.934;2022-07-19T06:22:20;18.70;54.00
26707;DHT22;14319;49.422;10.934;2022-07-19T06:24:21;18.80;53.70
26707;DHT22;14319;49.422;10.934;2022-07-19T06:26:22;18.80;54.00
26707;DHT22;14319;49.422;10.934;2022-07-19T06:28:23;19.00;53.30
26707;DHT22;14319;49.422;10.934;2022-07-19T06:30:24;19.00;53.20
26707;DHT22;14319;49.422;10.934;2022-07-19T06:32:26;19.20;53.30
26707;DHT22;14319;49.422;10.934;2022-07-19T06:34:26;19.20;53.00
26707;DHT22;14319;49.422;10.934;2022-07-19T06:36:27;19.40;52.50
26707;DHT22;14319;49.422;10.934;2022-07-19T06:38:28;19.50;52.20
26707;DHT22;14319;49.422;10.934;2022-07-19T06:40:28;19.50;52.00
26707;DHT22;14319;49.422;10.934;2022-07-19T06:42:29;19.60;52.10
26707;DHT22;14319;49.422;10.934;2022-07-19T06:44:29;19.70;51.40
26707;DHT22;14319;49.422;10.934;2022-07-19T06:46:30;19.70;51.90
26707;DHT22;14319;49.422;10.934;2022-07-19T06:48:31;19.70;51.40
26707;DHT22;14319;49.422;10.934;2022-07-19T06:50:32;19.80;51.80
26707;DHT22;14319;49.422;10.934;2022-07-19T06:52:33;19.90;51.60
26707;DHT22;14319;49.422;10.934;2022-07-19T06:54:34;20.00;51.80
26707;DHT22;14319;49.422;10.934;2022-07-19T06:56:34;20.00;51.50
26707;DHT22;14319;49.422;10.934;2022-07-19T06:58:35;20.10;51.00
26707;DHT22;14319;49.422;10.934;2022-07-19T07:00:35;20.10;50.90
26707;DHT22;14319;49.422;10.934;2022-07-19T07:02:37;20.20;51.10
26707;DHT22;14319;49.422;10.934;2022-07-19T07:04:37;20.20;51.30
26707;DHT22;14319;49.422;10.934;2022-07-19T07:06:38;20.30;50.80
26707;DHT22;14319;49.422;10.934;2022-07-19T07:08:38;20.40;50.40
26707;DHT22;14319;49.422;10.934;2022-07-19T07:10:39;20.40;51.00
26707;DHT22;14319;49.422;10.934;2022-07-19T07:12:40;20.60;49.30
26707;DHT22;14319;49.422;10.934;2022-07-19T07:14:41;20.60;50.10
26707;DHT22;14319;49.422;10.934;2022-07-19T07:16:42;20.80;48.30
26707;DHT22;14319;49.422;10.934;2022-07-19T07:18:42;21.10;48.60
26707;DHT22;14319;49.422;10.934;2022-07-19T07:20:43;21.10;48.00
26707;DHT22;14319;49.422;10.934;2022-07-19T07:22:44;21.10;48.50
26707;DHT22;14319;49.422;10.934;2022-07-19T07:24:44;21.10;47.80
26707;DHT22;14319;49.422;10.934;2022-07-19T07:26:45;21.20;47.40
26707;DHT22;14319;49.422;10.934;2022-07-19T07:28:46;21.40;47.40
26707;DHT22;14319;49.422;10.934;2022-07-19T07:30:46;21.50;46.50
26707;DHT22;14319;49.422;10.934;2022-07-19T07:32:47;21.60;47.00
26707;DHT22;14319;49.422;10.934;2022-07-19T07:34:47;21.80;46.00
26707;DHT22;14319;49.422;10.934;2022-07-19T07:36:48;21.80;46.30
26707;DHT22;14319;49.422;10.934;2022-07-19T07:38:49;22.00;46.30
26707;DHT22;14319;49.422;10.934;2022-07-19T07:40:49;22.20;44.80
26707;DHT22;14319;49.422;10.934;2022-07-19T07:42:50;22.50;44.70
26707;DHT22;14319;49.422;10.934;2022-07-19T07:44:52;22.70;43.70
26707;DHT22;14319;49.422;10.934;2022-07-19T07:46:52;22.80;43.70
26707;DHT22;14319;49.422;10.934;2022-07-19T07:48:53;22.90;43.70
26707;DHT22;14319;49.422;10.934;2022-07-19T07:50:54;22.90;43.70
26707;DHT22;14319;49.422;10.934;2022-07-19T07:52:54;22.90;44.10
26707;DHT22;14319;49.422;10.934;2022-07-19T07:54:55;23.10;42.80
26707;DHT22;14319;49.422;10.934;2022-07-19T07:56:56;23.20;42.80
26707;DHT22;14319;49.422;10.934;2022-07-19T07:58:57;23.30;43.60
26707;DHT22;14319;49.422;10.934;2022-07-19T08:00:58;23.30;42.70
26707;DHT22;14319;49.422;10.934;2022-07-19T08:02:58;23.40;42.70
26707;DHT22;14319;49.422;10.934;2022-07-19T08:04:59;23.40;42.20
26707;DHT22;14319;49.422;10.934;2022-07-19T08:06:59;23.70;42.30
26707;DHT22;14319;49.422;10.934;2022-07-19T08:09:00;23.70;42.60
26707;DHT22;14319;49.422;10.934;2022-07-19T08:11:01;23.80;41.90
26707;DHT22;14319;49.422;10.934;2022-07-19T08:13:02;24.00;40.80
26707;DHT22;14319;49.422;10.934;2022-07-19T08:15:04;24.10;41.20
26707;DHT22;14319;49.422;10.934;2022-07-19T08:17:05;24.30;41.00
26707;DHT22;14319;49.422;10.934;2022-07-19T08:19:06;24.10;41.00
26707;DHT22;14319;49.422;10.934;2022-07-19T08:21:07;24.20;40.80
26707;DHT22;14319;49.422;10.934;2022-07-19T08:23:07;24.40;40.50
26707;DHT22;14319;49.422;10.934;2022-07-19T08:25:09;24.40;41.10
26707;DHT22;14319;49.422;10.934;2022-07-19T08:27:09;24.60;39.80
26707;DHT22;14319;49.422;10.934;2022-07-19T08:29:10;24.70;39.70
26707;DHT22;14319;49.422;10.934;2022-07-19T08:31:12;24.70;39.80
26707;DHT22;14319;49.422;10.934;2022-07-19T08:33:13;24.70;39.80
26707;DHT22;14319;49.422;10.934;2022-07-19T08:35:14;24.70;40.00
26707;DHT22;14319;49.422;10.934;2022-07-19T08:37:15;24.70;39.90
26707;DHT22;14319;49.422;10.934;2022-07-19T08:39:16;24.80;40.00
26707;DHT22;14319;49.422;10.934;2022-07-19T08:41:17;24.90;39.00
26707;DHT22;14319;49.422;10.934;2022-07-19T08:43:18;25.00;39.60
26707;DHT22;14319;49.422;10.934;2022-07-19T08:45:22;25.10;38.00
26707;DHT22;14319;49.422;10.934;2022-07-19T08:47:23;25.30;37.90
26707;DHT22;14319;49.422;10.934;2022-07-19T08:49:25;25.30;37.50
26707;DHT22;14319;49.422;10.934;2022-07-19T08:51:26;25.50;36.60
26707;DHT22;14319;49.422;10.934;2022-07-19T08:53:31;25.50;37.20
26707;DHT22;14319;49.422;10.934;2022-07-19T08:55:32;25.30;37.50
26707;DHT22;14319;49.422;10.934;2022-07-19T08:57:34;25.30;37.70
26707;DHT22;14319;49.422;10.934;2022-07-19T08:59:53;25.50;36.40
26707;DHT22;14319;49.422;10.934;2022-07-19T09:01:54;25.80;35.70
26707;DHT22;14319;49.422;10.934;2022-07-19T09:06:04;25.90;35.90
26707;DHT22;14319;49.422;10.934;2022-07-19T09:08:13;26.00;36.10
26707;DHT22;14319;49.422;10.934;2022-07-19T09:10:18;26.00;35.90
26707;DHT22;14319;49.422;10.934;2022-07-19T09:12:19;26.00;35.20
26707;DHT22;14319;49.422;10.934;2022-07-19T09:16:25;26.20;34.90
26707;DHT22;14319;49.422;10.934;2022-07-19T09:18:28;26.20;34.50
26707;DHT22;14319;49.422;10.934;2022-07-19T09:20:29;26.30;35.10
26707;DHT22;14319;49.422;10.934;2022-07-19T09:22:30;26.30;34.20
26707;DHT22;14319;49.422;10.934;2022-07-19T09:24:39;26.40;34.10
26707;DHT22;14319;49.422;10.934;2022-07-19T09:27:03;26.50;34.40
26707;DHT22;14319;49.422;10.934;2022-07-19T09:29:17;26.60;34.50
26707;DHT22;14319;49.422;10.934;2022-07-19T09:31:18;26.60;33.70
26707;DHT22;14319;49.422;10.934;2022-07-19T09:33:24;26.60;34.90
26707;DHT22;14319;49.422;10.934;2022-07-19T09:35:35;26.60;33.90
26707;DHT22;14319;49.422;10.934;2022-07-19T09:37:36;26.50;34.20
26707;DHT22;14319;49.422;10.934;2022-07-19T09:39:41;26.70;33.80
26707;DHT22;14319;49.422;10.934;2022-07-19T09:41:55;26.80;33.00
26707;DHT22;14319;49.422;10.934;2022-07-19T09:43:59;26.80;33.50
26707;DHT22;14319;49.422;10.934;2022-07-19T09:46:00;26.90;32.80
26707;DHT22;14319;49.422;10.934;2022-07-19T09:48:01;26.90;33.00
26707;DHT22;14319;49.422;10.934;2022-07-19T09:50:08;27.00;33.40
26707;DHT22;14319;49.422;10.934;2022-07-19T09:52:10;27.00;34.10
26707;DHT22;14319;49.422;10.934;2022-07-19T09:54:23;27.10;33.40
26707;DHT22;14319;49.422;10.934;2022-07-19T09:56:26;27.20;32.70
26707;DHT22;14319;49.422;10.934;2022-07-19T09:58:28;27.30;32.80
26707;DHT22;14319;49.422;10.934;2022-07-19T10:00:29;27.30;32.20
26707;DHT22;14319;49.422;10.934;2022-07-19T10:02:33;27.30;31.10
26707;DHT22;14319;49.422;10.934;2022-07-19T10:04:35;27.30;32.00
26707;DHT22;14319;49.422;10.934;2022-07-19T10:06:37;27.30;32.70
26707;DHT22;14319;49.422;10.934;2022-07-19T10:08:38;27.40;31.50
26707;DHT22;14319;49.422;10.934;2022-07-19T10:10:39;27.30;31.90
26707;DHT22;14319;49.422;10.934;2022-07-19T10:12:42;27.40;31.50
26707;DHT22;14319;49.422;10.934;2022-07-19T10:14:44;27.40;30.90
26707;DHT22;14319;49.422;10.934;2022-07-19T10:21:32;27.60;30.60
26707;DHT22;14319;49.422;10.934;2022-07-19T10:23:34;27.60;30.90
26707;DHT22;14319;49.422;10.934;2022-07-19T10:25:40;27.70;31.30
26707;DHT22;14319;49.422;10.934;2022-07-19T10:27:50;27.80;30.50
26707;DHT22;14319;49.422;10.934;2022-07-19T10:30:38;27.80;31.00
26707;DHT22;14319;49.422;10.934;2022-07-19T10:32:13;27.80;30.00
26707;DHT22;14319;49.422;10.934;2022-07-19T10:34:21;27.90;30.60
26707;DHT22;14319;49.422;10.934;2022-07-19T10:36:34;27.70;31.50
26707;DHT22;14319;49.422;10.934;2022-07-19T10:38:35;27.80;31.50
26707;DHT22;14319;49.422;10.934;2022-07-19T10:40:44;27.70;31.20
26707;DHT22;14319;49.422;10.934;2022-07-19T10:43:12;27.70;30.90
26707;DHT22;14319;49.422;10.934;2022-07-19T10:45:13;27.90;31.00
26707;DHT22;14319;49.422;10.934;2022-07-19T10:47:16;27.90;31.70
26707;DHT22;14319;49.422;10.934;2022-07-19T10:49:43;27.90;30.90
26707;DHT22;14319;49.422;10.934;2022-07-19T10:51:44;27.80;30.60
26707;DHT22;14319;49.422;10.934;2022-07-19T10:53:53;28.00;31.40
26707;DHT22;14319;49.422;10.934;2022-07-19T10:56:20;28.00;31.10
26707;DHT22;14319;49.422;10.934;2022-07-19T10:58:22;28.00;30.70
26707;DHT22;14319;49.422;10.934;2022-07-19T11:00:27;28.00;30.10
26707;DHT22;14319;49.422;10.934;2022-07-19T11:02:28;28.10;30.40
26707;DHT22;14319;49.422;10.934;2022-07-19T11:04:33;28.10;30.50
26707;DHT22;14319;49.422;10.934;2022-07-19T11:06:34;28.40;30.10
26707;DHT22;14319;49.422;10.934;2022-07-19T11:08:37;28.50;29.90
26707;DHT22;14319;49.422;10.934;2022-07-19T11:10:39;28.50;30.30
26707;DHT22;14319;49.422;10.934;2022-07-19T11:12:40;28.50;30.10
26707;DHT22;14319;49.422;10.934;2022-07-19T11:14:47;28.40;29.10
26707;DHT22;14319;49.422;10.934;2022-07-19T11:16:59;28.40;29.70
26707;DHT22;14319;49.422;10.934;2022-07-19T11:19:07;28.40;29.90
26707;DHT22;14319;49.422;10.934;2022-07-19T11:21:10;28.40;29.90
26707;DHT22;14319;49.422;10.934;2022-07-19T11:23:17;28.60;29.40
26707;DHT22;14319;49.422;10.934;2022-07-19T11:25:26;28.70;29.40
26707;DHT22;14319;49.422;10.934;2022-07-19T11:27:27;28.60;30.10
26707;DHT22;14319;49.422;10.934;2022-07-19T11:29:58;28.60;28.90
26707;DHT22;14319;49.422;10.934;2022-07-19T11:31:59;28.80;29.30
26707;DHT22;14319;49.422;10.934;2022-07-19T11:34:00;28.90;29.50
26707;DHT22;14319;49.422;10.934;2022-07-19T11:36:01;28.90;28.90
26707;DHT22;14319;49.422;10.934;2022-07-19T11:38:02;28.90;29.40
26707;DHT22;14319;49.422;10.934;2022-07-19T11:40:04;29.00;29.60
26707;DHT22;14319;49.422;10.934;2022-07-19T11:42:06;29.10;29.90
26707;DHT22;14319;49.422;10.934;2022-07-19T11:44:08;29.20;29.40
26707;DHT22;14319;49.422;10.934;2022-07-19T11:46:10;29.10;28.80
26707;DHT22;14319;49.422;10.934;2022-07-19T11:48:11;29.10;29.00
26707;DHT22;14319;49.422;10.934;2022-07-19T11:50:14;29.10;27.80
26707;DHT22;14319;49.422;10.934;2022-07-19T11:52:15;29.00;28.20
26707;DHT22;14319;49.422;10.934;2022-07-19T11:54:16;29.00;29.00
26707;DHT22;14319;49.422;10.934;2022-07-19T11:56:21;29.00;27.80
26707;DHT22;14319;49.422;10.934;2022-07-19T11:58:21;29.20;29.00
26707;DHT22;14319;49.422;10.934;2022-07-19T12:00:23;29.00;29.20
26707;DHT22;14319;49.422;10.934;2022-07-19T12:02:23;28.90;28.90
26707;DHT22;14319;49.422;10.934;2022-07-19T12:04:24;29.00;29.90
26707;DHT22;14319;49.422;10.934;2022-07-19T12:06:43;29.10;29.30
26707;DHT22;14319;49.422;10.934;2022-07-19T12:08:44;29.20;29.10
26707;DHT22;14319;49.422;10.934;2022-07-19T12:10:47;29.30;29.80
26707;DHT22;14319;49.422;10.934;2022-07-19T12:12:50;29.20;28.20
26707;DHT22;14319;49.422;10.934;2022-07-19T12:15:06;29.30;29.00
26707;DHT22;14319;49.422;10.934;2022-07-19T12:17:19;29.40;28.30
26707;DHT22;14319;49.422;10.934;2022-07-19T12:19:20;29.60;27.40
26707;DHT22;14319;49.422;10.934;2022-07-19T12:23:32;29.80;26.90
26707;DHT22;14319;49.422;10.934;2022-07-19T12:25:37;29.90;27.30
26707;DHT22;14319;49.422;10.934;2022-07-19T12:27:38;29.70;28.00
26707;DHT22;14319;49.422;10.934;2022-07-19T12:31:44;30.00;27.70
26707;DHT22;14319;49.422;10.934;2022-07-19T12:33:45;29.80;27.50
26707;DHT22;14319;49.422;10.934;2022-07-19T12:35:48;29.80;27.50
26707;DHT22;14319;49.422;10.934;2022-07-19T12:37:49;29.70;28.30
26707;DHT22;14319;49.422;10.934;2022-07-19T12:40:05;29.80;28.20
26707;DHT22;14319;49.422;10.934;2022-07-19T12:42:07;29.90;27.00
26707;DHT22;14319;49.422;10.934;2022-07-19T12:44:08;29.60;29.20
26707;DHT22;14319;49.422;10.934;2022-07-19T12:46:08;29.60;28.00
26707;DHT22;14319;49.422;10.934;2022-07-19T12:48:12;29.60;28.00
26707;DHT22;14319;49.422;10.934;2022-07-19T12:50:26;29.80;27.30
26707;DHT22;14319;49.422;10.934;2022-07-19T12:52:27;29.80;27.30